sensor_id;sensor_type;location;lat;lon;timestamp;P1;durP1;ratioP1;P2;durP2;ratioP2
14096;SDS011;7125;48.106;11.544;2023-07-13T00:00:53;6.32;;;5.10;;
14096;SDS011;7125;48.106;11.544;2023-07-13T00:03:21;13.35;;;4.93;;
14096;SDS011;7125;48.106;11.544;2023-07-13T00:05:56;4.55;;;4.15;;
14096;SDS011;7125;48.106;11.544;2023-07-13T00:08:23;8.30;;;4.63;;
14096;SDS011;7125;48.106;11.544;2023-07-13T00:10:51;5.22;;;4.13;;
14096;SDS011;7125;48.106;11.544;2023-07-13T00:13:20;5.70;;;4.10;;
14096;SDS011;7125;48.106;11.544;2023-07-13T00:15:47;4.43;;;4.03;;
14096;SDS011;7125;48.106;11.544;2023-07-13T00:18:14;7.60;;;4.40;;
14096;SDS011;7125;48.106;11.544;2023-07-13T00:20:41;8.57;;;3.45;;
14096;SDS011;7125;48.106;11.544;2023-07-13T00:23:08;5.53;;;4.13;;
14096;SDS011;7125;48.106;11.544;2023-07-13T00:25:35;4.20;;;3.80;;
14096;SDS011;7125;48.106;11.544;2023-07-13T00:28:02;4.60;;;4.07;;
14096;SDS011;7125;48.106;11.544;2023-07-13T00:30:30;4.53;;;3.75;;
14096;SDS011;7125;48.106;11.544;2023-07-13T00:32:57;6.07;;;3.60;;
14096;SDS011;7125;48.106;11.544;2023-07-13T00:35:26;4.10;;;3.65;;
14096;SDS011;7125;48.106;11.544;2023-07-13T00:37:53;6.57;;;4.22;;
14096;SDS011;7125;48.106;11.544;2023-07-13T00:40:22;4.53;;;3.88;;
14096;SDS011;7125;48.106;11.544;2023-07-13T00:42:51;4.82;;;4.38;;
14096;SDS011;7125;48.106;11.544;2023-07-13T00:48:37;7.43;;;5.85;;
14096;SDS011;7125;48.106;11.544;2023-07-13T00:51:04;11.13;;;5.85;;
14096;SDS011;7125;48.106;11.544;2023-07-13T00:53:32;7.55;;;6.03;;
14096;SDS011;7125;48.106;11.544;2023-07-13T00:56:00;8.65;;;7.15;;
14096;SDS011;7125;48.106;11.544;2023-07-13T00:58:27;8.90;;;6.53;;
14096;SDS011;7125;48.106;11.544;2023-07-13T01:00:56;7.13;;;5.35;;
14096;SDS011;7125;48.106;11.544;2023-07-13T01:03:24;7.53;;;4.82;;
14096;SDS011;7125;48.106;11.544;2023-07-13T01:05:53;7.28;;;4.65;;
14096;SDS011;7125;48.106;11.544;2023-07-13T01:08:20;7.47;;;5.00;;
14096;SDS011;7125;48.106;11.544;2023-07-13T01:10:51;6.25;;;4.50;;
14096;SDS011;7125;48.106;11.544;2023-07-13T01:13:19;5.65;;;4.20;;
14096;SDS011;7125;48.106;11.544;2023-07-13T01:15:47;5.43;;;3.75;;
14096;SDS011;7125;48.106;11.544;2023-07-13T01:18:17;6.85;;;4.03;;
14096;SDS011;7125;48.106;11.544;2023-07-13T01:20:49;4.93;;;3.63;;
14096;SDS011;7125;48.106;11.544;2023-07-13T01:23:17;4.90;;;4.25;;
14096;SDS011;7125;48.106;11.544;2023-07-13T01:25:44;4.75;;;4.20;;
14096;SDS011;7125;48.106;11.544;2023-07-13T01:28:11;4.68;;;4.00;;
14096;SDS011;7125;48.106;11.544;2023-07-13T01:30:38;3.42;;;3.13;;
14096;SDS011;7125;48.106;11.544;2023-07-13T01:33:06;4.03;;;3.70;;
14096;SDS011;7125;48.106;11.544;2023-07-13T01:35:34;4.25;;;3.22;;
14096;SDS011;7125;48.106;11.544;2023-07-13T01:38:03;4.80;;;3.83;;
14096;SDS011;7125;48.106;11.544;2023-07-13T01:40:31;5.90;;;3.45;;
14096;SDS011;7125;48.106;11.544;2023-07-13T01:42:58;3.33;;;3.03;;
14096;SDS011;7125;48.106;11.544;2023-07-13T01:45:25;5.03;;;3.20;;
14096;SDS011;7125;48.106;11.544;2023-07-13T01:47:52;2.58;;;2.38;;
14096;SDS011;7125;48.106;11.544;2023-07-13T01:50:20;5.97;;;3.13;;
14096;SDS011;7125;48.106;11.544;2023-07-13T01:52:47;4.00;;;3.65;;
14096;SDS011;7125;48.106;11.544;2023-07-13T01:55:16;3.22;;;2.88;;
14096;SDS011;7125;48.106;11.544;2023-07-13T01:57:43;6.32;;;3.90;;
14096;SDS011;7125;48.106;11.544;2023-07-13T02:00:10;3.38;;;3.08;;
14096;SDS011;7125;48.106;11.544;2023-07-13T02:02:41;8.05;;;3.30;;
14096;SDS011;7125;48.106;11.544;2023-07-13T02:05:09;4.07;;;3.63;;
14096;SDS011;7125;48.106;11.544;2023-07-13T02:07:36;3.58;;;3.28;;
14096;SDS011;7125;48.106;11.544;2023-07-13T02:10:04;3.72;;;3.42;;
14096;SDS011;7125;48.106;11.544;2023-07-13T02:12:33;3.95;;;3.55;;
14096;SDS011;7125;48.106;11.544;2023-07-13T02:15:00;4.15;;;3.20;;
14096;SDS011;7125;48.106;11.544;2023-07-13T02:17:28;4.75;;;3.63;;
14096;SDS011;7125;48.106;11.544;2023-07-13T02:19:55;3.67;;;3.38;;
14096;SDS011;7125;48.106;11.544;2023-07-13T02:22:22;3.63;;;3.33;;
14096;SDS011;7125;48.106;11.544;2023-07-13T02:24:49;3.42;;;3.13;;
14096;SDS011;7125;48.106;11.544;2023-07-13T02:27:17;4.60;;;3.38;;
14096;SDS011;7125;48.106;11.544;2023-07-13T02:29:46;4.50;;;3.22;;
14096;SDS011;7125;48.106;11.544;2023-07-13T02:32:12;5.35;;;3.55;;
14096;SDS011;7125;48.106;11.544;2023-07-13T02:34:40;4.30;;;3.90;;
14096;SDS011;7125;48.106;11.544;2023-07-13T02:37:07;4.60;;;3.50;;
14096;SDS011;7125;48.106;11.544;2023-07-13T02:39:34;5.30;;;3.60;;
14096;SDS011;7125;48.106;11.544;2023-07-13T02:42:02;4.75;;;4.00;;
14096;SDS011;7125;48.106;11.544;2023-07-13T02:44:29;4.80;;;3.70;;
14096;SDS011;7125;48.106;11.544;2023-07-13T02:46:58;4.90;;;3.55;;
14096;SDS011;7125;48.106;11.544;2023-07-13T02:49:25;6.28;;;3.90;;
14096;SDS011;7125;48.106;11.544;2023-07-13T02:51:51;4.18;;;3.78;;
14096;SDS011;7125;48.106;11.544;2023-07-13T02:54:18;4.90;;;3.55;;
14096;SDS011;7125;48.106;11.544;2023-07-13T02:56:45;4.75;;;4.07;;
14096;SDS011;7125;48.106;11.544;2023-07-13T02:59:13;7.63;;;4.20;;
14096;SDS011;7125;48.106;11.544;2023-07-13T03:01:39;4.88;;;4.38;;
14096;SDS011;7125;48.106;11.544;2023-07-13T03:04:08;7.40;;;4.40;;
14096;SDS011;7125;48.106;11.544;2023-07-13T03:06:35;5.00;;;4.60;;
14096;SDS011;7125;48.106;11.544;2023-07-13T03:09:03;5.50;;;4.97;;
14096;SDS011;7125;48.106;11.544;2023-07-13T03:11:31;9.95;;;5.05;;
14096;SDS011;7125;48.106;11.544;2023-07-13T03:14:14;7.15;;;4.70;;
14096;SDS011;7125;48.106;11.544;2023-07-13T03:16:41;6.88;;;4.50;;
14096;SDS011;7125;48.106;11.544;2023-07-13T03:19:09;6.25;;;4.63;;
14096;SDS011;7125;48.106;11.544;2023-07-13T03:21:36;11.27;;;5.03;;
14096;SDS011;7125;48.106;11.544;2023-07-13T03:24:03;5.28;;;4.68;;
14096;SDS011;7125;48.106;11.544;2023-07-13T03:26:31;5.03;;;4.50;;
14096;SDS011;7125;48.106;11.544;2023-07-13T03:28:57;6.50;;;5.07;;
14096;SDS011;7125;48.106;11.544;2023-07-13T03:31:25;9.07;;;6.05;;
14096;SDS011;7125;48.106;11.544;2023-07-13T03:33:54;6.97;;;4.55;;
14096;SDS011;7125;48.106;11.544;2023-07-13T03:36:23;7.05;;;5.00;;
14096;SDS011;7125;48.106;11.544;2023-07-13T03:38:55;7.53;;;4.53;;
14096;SDS011;7125;48.106;11.544;2023-07-13T03:41:27;6.72;;;4.93;;
14096;SDS011;7125;48.106;11.544;2023-07-13T03:43:54;8.43;;;5.00;;
14096;SDS011;7125;48.106;11.544;2023-07-13T03:46:23;7.30;;;4.90;;
14096;SDS011;7125;48.106;11.544;2023-07-13T03:48:50;6.00;;;4.85;;
14096;SDS011;7125;48.106;11.544;2023-07-13T03:51:17;8.52;;;5.00;;
14096;SDS011;7125;48.106;11.544;2023-07-13T03:53:46;5.93;;;4.85;;
14096;SDS011;7125;48.106;11.544;2023-07-13T03:56:17;11.52;;;5.72;;
14096;SDS011;7125;48.106;11.544;2023-07-13T03:58:45;6.22;;;5.35;;
14096;SDS011;7125;48.106;11.544;2023-07-13T04:01:17;7.55;;;5.63;;
14096;SDS011;7125;48.106;11.544;2023-07-13T04:03:45;8.88;;;5.75;;
14096;SDS011;7125;48.106;11.544;2023-07-13T04:06:13;6.53;;;4.38;;
14096;SDS011;7125;48.106;11.544;2023-07-13T04:08:48;9.35;;;5.00;;
14096;SDS011;7125;48.106;11.544;2023-07-13T04:11:16;8.95;;;5.03;;
14096;SDS011;7125;48.106;11.544;2023-07-13T04:13:43;6.38;;;4.88;;
14096;SDS011;7125;48.106;11.544;2023-07-13T04:16:11;10.07;;;5.63;;
14096;SDS011;7125;48.106;11.544;2023-07-13T04:18:38;5.88;;;4.85;;
14096;SDS011;7125;48.106;11.544;2023-07-13T04:21:06;5.47;;;4.63;;
14096;SDS011;7125;48.106;11.544;2023-07-13T04:23:34;5.90;;;5.15;;
14096;SDS011;7125;48.106;11.544;2023-07-13T04:26:02;6.53;;;4.32;;
14096;SDS011;7125;48.106;11.544;2023-07-13T04:28:30;7.10;;;5.05;;
14096;SDS011;7125;48.106;11.544;2023-07-13T04:30:57;7.32;;;5.10;;
14096;SDS011;7125;48.106;11.544;2023-07-13T04:33:24;7.43;;;4.85;;
14096;SDS011;7125;48.106;11.544;2023-07-13T04:35:52;11.35;;;5.50;;
14096;SDS011;7125;48.106;11.544;2023-07-13T04:38:21;10.25;;;5.50;;
14096;SDS011;7125;48.106;11.544;2023-07-13T04:40:51;7.93;;;6.72;;
14096;SDS011;7125;48.106;11.544;2023-07-13T04:43:19;7.55;;;4.10;;
14096;SDS011;7125;48.106;11.544;2023-07-13T04:45:46;8.90;;;5.80;;
14096;SDS011;7125;48.106;11.544;2023-07-13T04:48:12;5.20;;;4.75;;
14096;SDS011;7125;48.106;11.544;2023-07-13T04:50:39;7.35;;;4.50;;
14096;SDS011;7125;48.106;11.544;2023-07-13T04:53:06;6.93;;;5.18;;
14096;SDS011;7125;48.106;11.544;2023-07-13T04:55:33;5.95;;;4.95;;
14096;SDS011;7125;48.106;11.544;2023-07-13T04:58:00;5.95;;;5.35;;
14096;SDS011;7125;48.106;11.544;2023-07-13T05:00:29;5.53;;;5.00;;
14096;SDS011;7125;48.106;11.544;2023-07-13T05:02:57;6.32;;;4.93;;
14096;SDS011;7125;48.106;11.544;2023-07-13T05:05:25;5.43;;;5.00;;
14096;SDS011;7125;48.106;11.544;2023-07-13T05:07:52;6.90;;;4.70;;
14096;SDS011;7125;48.106;11.544;2023-07-13T05:10:20;4.50;;;4.10;;
14096;SDS011;7125;48.106;11.544;2023-07-13T05:12:47;7.35;;;5.07;;
14096;SDS011;7125;48.106;11.544;2023-07-13T05:15:14;5.03;;;3.90;;
14096;SDS011;7125;48.106;11.544;2023-07-13T05:17:42;5.72;;;4.55;;
14096;SDS011;7125;48.106;11.544;2023-07-13T05:20:09;5.47;;;4.22;;
14096;SDS011;7125;48.106;11.544;2023-07-13T05:22:36;5.38;;;3.92;;
14096;SDS011;7125;48.106;11.544;2023-07-13T05:25:04;4.57;;;3.47;;
14096;SDS011;7125;48.106;11.544;2023-07-13T05:27:32;4.50;;;3.97;;
14096;SDS011;7125;48.106;11.544;2023-07-13T05:29:59;4.55;;;4.15;;
14096;SDS011;7125;48.106;11.544;2023-07-13T05:32:26;5.10;;;4.38;;
14096;SDS011;7125;48.106;11.544;2023-07-13T05:34:54;4.80;;;4.38;;
14096;SDS011;7125;48.106;11.544;2023-07-13T05:37:21;6.70;;;4.05;;
14096;SDS011;7125;48.106;11.544;2023-07-13T05:39:48;6.03;;;4.20;;
14096;SDS011;7125;48.106;11.544;2023-07-13T05:42:15;4.38;;;3.95;;
14096;SDS011;7125;48.106;11.544;2023-07-13T05:44:42;5.05;;;4.10;;
14096;SDS011;7125;48.106;11.544;2023-07-13T05:47:09;4.63;;;4.22;;
14096;SDS011;7125;48.106;11.544;2023-07-13T05:49:36;7.65;;;4.10;;
14096;SDS011;7125;48.106;11.544;2023-07-13T05:52:04;6.70;;;4.88;;
14096;SDS011;7125;48.106;11.544;2023-07-13T05:54:31;9.93;;;5.35;;
14096;SDS011;7125;48.106;11.544;2023-07-13T05:56:58;6.10;;;5.50;;
14096;SDS011;7125;48.106;11.544;2023-07-13T05:59:25;8.43;;;4.55;;
14096;SDS011;7125;48.106;11.544;2023-07-13T06:01:52;5.53;;;4.25;;
14096;SDS011;7125;48.106;11.544;2023-07-13T06:04:19;7.53;;;4.82;;
14096;SDS011;7125;48.106;11.544;2023-07-13T06:06:46;6.07;;;4.68;;
14096;SDS011;7125;48.106;11.544;2023-07-13T06:09:14;6.10;;;5.00;;
14096;SDS011;7125;48.106;11.544;2023-07-13T06:11:41;7.05;;;4.78;;
14096;SDS011;7125;48.106;11.544;2023-07-13T06:14:09;5.68;;;4.57;;
14096;SDS011;7125;48.106;11.544;2023-07-13T06:16:36;8.70;;;4.45;;
14096;SDS011;7125;48.106;11.544;2023-07-13T06:19:03;8.82;;;4.95;;
14096;SDS011;7125;48.106;11.544;2023-07-13T06:21:30;7.43;;;4.72;;
14096;SDS011;7125;48.106;11.544;2023-07-13T06:23:56;6.75;;;5.05;;
14096;SDS011;7125;48.106;11.544;2023-07-13T06:26:25;6.65;;;4.65;;
14096;SDS011;7125;48.106;11.544;2023-07-13T06:28:53;5.43;;;4.80;;
14096;SDS011;7125;48.106;11.544;2023-07-13T06:31:19;6.80;;;5.10;;
14096;SDS011;7125;48.106;11.544;2023-07-13T06:33:46;8.10;;;5.32;;
14096;SDS011;7125;48.106;11.544;2023-07-13T06:36:13;7.50;;;3.97;;
14096;SDS011;7125;48.106;11.544;2023-07-13T06:38:40;7.75;;;4.88;;
14096;SDS011;7125;48.106;11.544;2023-07-13T06:41:07;4.45;;;4.05;;
14096;SDS011;7125;48.106;11.544;2023-07-13T06:43:35;11.73;;;5.50;;
14096;SDS011;7125;48.106;11.544;2023-07-13T06:46:02;5.32;;;4.82;;
14096;SDS011;7125;48.106;11.544;2023-07-13T06:48:29;9.05;;;4.82;;
14096;SDS011;7125;48.106;11.544;2023-07-13T06:50:56;6.55;;;3.95;;
14096;SDS011;7125;48.106;11.544;2023-07-13T06:53:24;8.05;;;4.82;;
14096;SDS011;7125;48.106;11.544;2023-07-13T06:55:51;6.57;;;4.55;;
14096;SDS011;7125;48.106;11.544;2023-07-13T06:58:18;4.90;;;4.30;;
14096;SDS011;7125;48.106;11.544;2023-07-13T07:00:49;5.57;;;3.90;;
14096;SDS011;7125;48.106;11.544;2023-07-13T07:03:17;6.72;;;4.72;;
14096;SDS011;7125;48.106;11.544;2023-07-13T07:05:44;4.63;;;4.03;;
14096;SDS011;7125;48.106;11.544;2023-07-13T07:08:11;5.95;;;3.92;;
14096;SDS011;7125;48.106;11.544;2023-07-13T07:10:38;6.82;;;4.10;;
14096;SDS011;7125;48.106;11.544;2023-07-13T07:13:04;6.20;;;4.28;;
14096;SDS011;7125;48.106;11.544;2023-07-13T07:15:31;7.68;;;4.05;;
14096;SDS011;7125;48.106;11.544;2023-07-13T07:18:01;4.90;;;3.95;;
14096;SDS011;7125;48.106;11.544;2023-07-13T07:20:28;5.03;;;4.38;;
14096;SDS011;7125;48.106;11.544;2023-07-13T07:22:55;5.70;;;3.85;;
14096;SDS011;7125;48.106;11.544;2023-07-13T07:25:22;7.20;;;4.15;;
14096;SDS011;7125;48.106;11.544;2023-07-13T07:27:49;6.05;;;3.90;;
14096;SDS011;7125;48.106;11.544;2023-07-13T07:30:16;7.75;;;3.97;;
14096;SDS011;7125;48.106;11.544;2023-07-13T07:32:43;5.78;;;3.67;;
14096;SDS011;7125;48.106;11.544;2023-07-13T07:35:11;5.53;;;3.53;;
14096;SDS011;7125;48.106;11.544;2023-07-13T07:37:38;6.03;;;3.60;;
14096;SDS011;7125;48.106;11.544;2023-07-13T07:40:06;4.20;;;3.42;;
14096;SDS011;7125;48.106;11.544;2023-07-13T07:42:35;6.00;;;3.63;;
14096;SDS011;7125;48.106;11.544;2023-07-13T07:45:02;4.70;;;3.90;;
14096;SDS011;7125;48.106;11.544;2023-07-13T07:47:29;5.25;;;3.50;;
14096;SDS011;7125;48.106;11.544;2023-07-13T07:49:56;5.43;;;4.13;;
14096;SDS011;7125;48.106;11.544;2023-07-13T07:52:24;5.53;;;4.45;;
14096;SDS011;7125;48.106;11.544;2023-07-13T07:54:51;8.13;;;3.72;;
14096;SDS011;7125;48.106;11.544;2023-07-13T07:57:18;4.20;;;3.78;;
14096;SDS011;7125;48.106;11.544;2023-07-13T07:59:44;7.55;;;4.10;;
14096;SDS011;7125;48.106;11.544;2023-07-13T08:02:11;4.45;;;4.05;;
14096;SDS011;7125;48.106;11.544;2023-07-13T08:04:38;6.75;;;4.38;;
14096;SDS011;7125;48.106;11.544;2023-07-13T08:07:05;8.30;;;4.50;;
14096;SDS011;7125;48.106;11.544;2023-07-13T08:09:34;5.00;;;4.13;;
14096;SDS011;7125;48.106;11.544;2023-07-13T08:12:00;5.45;;;3.65;;
14096;SDS011;7125;48.106;11.544;2023-07-13T08:14:27;4.35;;;3.95;;
14096;SDS011;7125;48.106;11.544;2023-07-13T08:16:54;8.50;;;4.32;;
14096;SDS011;7125;48.106;11.544;2023-07-13T08:19:21;6.72;;;4.18;;
14096;SDS011;7125;48.106;11.544;2023-07-13T08:21:48;7.40;;;3.88;;
14096;SDS011;7125;48.106;11.544;2023-07-13T08:24:15;8.80;;;4.25;;
14096;SDS011;7125;48.106;11.544;2023-07-13T08:26:45;9.63;;;4.80;;
14096;SDS011;7125;48.106;11.544;2023-07-13T08:29:12;7.00;;;4.60;;
14096;SDS011;7125;48.106;11.544;2023-07-13T08:31:39;4.97;;;3.58;;
14096;SDS011;7125;48.106;11.544;2023-07-13T08:34:05;7.38;;;4.13;;
14096;SDS011;7125;48.106;11.544;2023-07-13T08:36:35;5.63;;;3.92;;
14096;SDS011;7125;48.106;11.544;2023-07-13T08:39:02;7.45;;;4.15;;
14096;SDS011;7125;48.106;11.544;2023-07-13T08:41:30;8.25;;;4.38;;
14096;SDS011;7125;48.106;11.544;2023-07-13T08:43:58;7.47;;;4.65;;
14096;SDS011;7125;48.106;11.544;2023-07-13T08:46:28;4.95;;;4.40;;
14096;SDS011;7125;48.106;11.544;2023-07-13T08:49:01;6.40;;;4.03;;
14096;SDS011;7125;48.106;11.544;2023-07-13T08:51:33;6.40;;;4.35;;
14096;SDS011;7125;48.106;11.544;2023-07-13T08:54:08;5.38;;;4.65;;
14096;SDS011;7125;48.106;11.544;2023-07-13T08:56:44;7.88;;;3.90;;
14096;SDS011;7125;48.106;11.544;2023-07-13T08:59:14;7.20;;;4.03;;
14096;SDS011;7125;48.106;11.544;2023-07-13T09:01:47;5.55;;;4.68;;
14096;SDS011;7125;48.106;11.544;2023-07-13T09:04:28;7.25;;;4.72;;
14096;SDS011;7125;48.106;11.544;2023-07-13T09:07:00;5.75;;;3.83;;
14096;SDS011;7125;48.106;11.544;2023-07-13T09:09:36;3.92;;;3.42;;
14096;SDS011;7125;48.106;11.544;2023-07-13T09:12:18;3.83;;;3.50;;
14096;SDS011;7125;48.106;11.544;2023-07-13T09:14:53;3.88;;;3.58;;
14096;SDS011;7125;48.106;11.544;2023-07-13T09:17:24;3.83;;;3.47;;
14096;SDS011;7125;48.106;11.544;2023-07-13T09:19:55;6.45;;;3.42;;
14096;SDS011;7125;48.106;11.544;2023-07-13T09:22:25;6.97;;;4.32;;
14096;SDS011;7125;48.106;11.544;2023-07-13T09:25:00;9.68;;;4.65;;
14096;SDS011;7125;48.106;11.544;2023-07-13T09:27:33;3.80;;;3.42;;
14096;SDS011;7125;48.106;11.544;2023-07-13T09:30:12;5.45;;;3.88;;
14096;SDS011;7125;48.106;11.544;2023-07-13T09:32:51;4.47;;;4.07;;
14096;SDS011;7125;48.106;11.544;2023-07-13T09:35:20;3.72;;;3.10;;
14096;SDS011;7125;48.106;11.544;2023-07-13T09:37:56;4.57;;;3.33;;
14096;SDS011;7125;48.106;11.544;2023-07-13T09:40:25;5.60;;;3.80;;
14096;SDS011;7125;48.106;11.544;2023-07-13T09:42:57;5.65;;;3.00;;
14096;SDS011;7125;48.106;11.544;2023-07-13T09:45:29;3.88;;;2.95;;
14096;SDS011;7125;48.106;11.544;2023-07-13T09:48:03;5.03;;;3.50;;
14096;SDS011;7125;48.106;11.544;2023-07-13T09:50:34;3.58;;;3.05;;
14096;SDS011;7125;48.106;11.544;2023-07-13T09:53:01;5.28;;;3.75;;
14096;SDS011;7125;48.106;11.544;2023-07-13T09:55:29;6.55;;;3.80;;
14096;SDS011;7125;48.106;11.544;2023-07-13T09:58:02;12.05;;;3.97;;
14096;SDS011;7125;48.106;11.544;2023-07-13T10:00:32;3.60;;;2.95;;
14096;SDS011;7125;48.106;11.544;2023-07-13T10:03:03;4.70;;;2.92;;
14096;SDS011;7125;48.106;11.544;2023-07-13T10:05:38;6.32;;;4.07;;
14096;SDS011;7125;48.106;11.544;2023-07-13T10:08:11;5.57;;;3.35;;
14096;SDS011;7125;48.106;11.544;2023-07-13T10:10:43;5.88;;;3.20;;
14096;SDS011;7125;48.106;11.544;2023-07-13T10:13:21;3.72;;;2.95;;
14096;SDS011;7125;48.106;11.544;2023-07-13T10:15:59;4.03;;;2.13;;
14096;SDS011;7125;48.106;11.544;2023-07-13T10:18:27;3.03;;;2.33;;
14096;SDS011;7125;48.106;11.544;2023-07-13T10:21:07;3.22;;;2.92;;
14096;SDS011;7125;48.106;11.544;2023-07-13T10:23:39;4.72;;;2.72;;
14096;SDS011;7125;48.106;11.544;2023-07-13T10:26:09;3.78;;;2.50;;
14096;SDS011;7125;48.106;11.544;2023-07-13T10:28:41;5.60;;;2.95;;
14096;SDS011;7125;48.106;11.544;2023-07-13T10:31:14;5.13;;;3.00;;
14096;SDS011;7125;48.106;11.544;2023-07-13T10:33:42;4.25;;;2.22;;
14096;SDS011;7125;48.106;11.544;2023-07-13T10:36:14;2.75;;;2.03;;
14096;SDS011;7125;48.106;11.544;2023-07-13T10:38:46;5.03;;;2.47;;
14096;SDS011;7125;48.106;11.544;2023-07-13T10:41:15;4.63;;;2.00;;
14096;SDS011;7125;48.106;11.544;2023-07-13T10:43:47;2.53;;;2.33;;
14096;SDS011;7125;48.106;11.544;2023-07-13T10:46:24;4.82;;;2.20;;
14096;SDS011;7125;48.106;11.544;2023-07-13T10:48:56;2.63;;;1.83;;
14096;SDS011;7125;48.106;11.544;2023-07-13T10:51:25;5.63;;;2.00;;
14096;SDS011;7125;48.106;11.544;2023-07-13T10:56:51;1.73;;;1.63;;
14096;SDS011;7125;48.106;11.544;2023-07-13T10:59:32;4.30;;;2.10;;
14096;SDS011;7125;48.106;11.544;2023-07-13T11:02:06;3.35;;;2.33;;
14096;SDS011;7125;48.106;11.544;2023-07-13T11:04:41;3.28;;;1.98;;
14096;SDS011;7125;48.106;11.544;2023-07-13T11:07:16;5.07;;;2.00;;
14096;SDS011;7125;48.106;11.544;2023-07-13T11:09:49;3.08;;;2.17;;
14096;SDS011;7125;48.106;11.544;2023-07-13T11:12:27;4.97;;;2.28;;
14096;SDS011;7125;48.106;11.544;2023-07-13T11:15:15;3.80;;;1.88;;
14096;SDS011;7125;48.106;11.544;2023-07-13T11:17:57;3.08;;;2.30;;
14096;SDS011;7125;48.106;11.544;2023-07-13T11:20:36;6.10;;;1.73;;
14096;SDS011;7125;48.106;11.544;2023-07-13T11:23:15;3.42;;;2.15;;
14096;SDS011;7125;48.106;11.544;2023-07-13T11:25:55;3.83;;;1.50;;
14096;SDS011;7125;48.106;11.544;2023-07-13T11:28:23;3.97;;;1.55;;
14096;SDS011;7125;48.106;11.544;2023-07-13T11:31:03;4.80;;;2.20;;
14096;SDS011;7125;48.106;11.544;2023-07-13T11:36:38;2.10;;;1.40;;
14096;SDS011;7125;48.106;11.544;2023-07-13T11:39:12;4.88;;;1.60;;
14096;SDS011;7125;48.106;11.544;2023-07-13T11:41:45;2.22;;;1.50;;
14096;SDS011;7125;48.106;11.544;2023-07-13T11:44:18;1.70;;;1.60;;
14096;SDS011;7125;48.106;11.544;2023-07-13T11:46:47;3.58;;;1.83;;
14096;SDS011;7125;48.106;11.544;2023-07-13T11:49:18;1.45;;;1.35;;
14096;SDS011;7125;48.106;11.544;2023-07-13T11:51:46;4.03;;;1.73;;
14096;SDS011;7125;48.106;11.544;2023-07-13T11:54:22;6.28;;;1.85;;
14096;SDS011;7125;48.106;11.544;2023-07-13T11:56:51;5.45;;;1.75;;
14096;SDS011;7125;48.106;11.544;2023-07-13T11:59:19;3.60;;;1.88;;
14096;SDS011;7125;48.106;11.544;2023-07-13T12:01:48;3.78;;;2.08;;
14096;SDS011;7125;48.106;11.544;2023-07-13T12:04:21;3.17;;;1.83;;
14096;SDS011;7125;48.106;11.544;2023-07-13T12:06:57;1.95;;;1.30;;
14096;SDS011;7125;48.106;11.544;2023-07-13T12:09:30;2.13;;;1.67;;
14096;SDS011;7125;48.106;11.544;2023-07-13T12:11:57;2.47;;;1.85;;
14096;SDS011;7125;48.106;11.544;2023-07-13T12:14:26;1.55;;;1.27;;
14096;SDS011;7125;48.106;11.544;2023-07-13T12:16:53;1.58;;;1.48;;
14096;SDS011;7125;48.106;11.544;2023-07-13T12:19:23;3.03;;;1.63;;
14096;SDS011;7125;48.106;11.544;2023-07-13T12:21:55;2.55;;;1.17;;
14096;SDS011;7125;48.106;11.544;2023-07-13T12:24:23;1.55;;;1.17;;
14096;SDS011;7125;48.106;11.544;2023-07-13T12:26:51;5.90;;;1.63;;
14096;SDS011;7125;48.106;11.544;2023-07-13T12:29:19;3.50;;;1.88;;
14096;SDS011;7125;48.106;11.544;2023-07-13T12:31:47;4.60;;;2.17;;
14096;SDS011;7125;48.106;11.544;2023-07-13T12:34:15;2.05;;;1.58;;
14096;SDS011;7125;48.106;11.544;2023-07-13T12:36:46;2.05;;;1.48;;
14096;SDS011;7125;48.106;11.544;2023-07-13T12:39:15;1.83;;;1.73;;
14096;SDS011;7125;48.106;11.544;2023-07-13T12:41:45;6.25;;;1.73;;
14096;SDS011;7125;48.106;11.544;2023-07-13T12:44:13;4.80;;;1.70;;
14096;SDS011;7125;48.106;11.544;2023-07-13T12:46:56;2.13;;;1.30;;
14096;SDS011;7125;48.106;11.544;2023-07-13T12:49:26;2.28;;;1.60;;
14096;SDS011;7125;48.106;11.544;2023-07-13T12:51:59;3.50;;;1.88;;
14096;SDS011;7125;48.106;11.544;2023-07-13T12:54:28;3.55;;;1.27;;
14096;SDS011;7125;48.106;11.544;2023-07-13T12:56:56;4.07;;;1.45;;
14096;SDS011;7125;48.106;11.544;2023-07-13T12:59:29;3.42;;;1.67;;
14096;SDS011;7125;48.106;11.544;2023-07-13T13:02:01;4.18;;;2.83;;
14096;SDS011;7125;48.106;11.544;2023-07-13T13:04:28;3.35;;;1.88;;
14096;SDS011;7125;48.106;11.544;2023-07-13T13:07:02;3.47;;;1.92;;
14096;SDS011;7125;48.106;11.544;2023-07-13T13:09:30;1.63;;;1.42;;
14096;SDS011;7125;48.106;11.544;2023-07-13T13:11:57;2.13;;;1.92;;
14096;SDS011;7125;48.106;11.544;2023-07-13T13:14:24;1.67;;;1.33;;
14096;SDS011;7125;48.106;11.544;2023-07-13T13:16:51;2.78;;;1.40;;
14096;SDS011;7125;48.106;11.544;2023-07-13T13:19:20;4.78;;;1.48;;
14096;SDS011;7125;48.106;11.544;2023-07-13T13:21:49;2.63;;;1.67;;
14096;SDS011;7125;48.106;11.544;2023-07-13T13:24:19;3.75;;;1.90;;
14096;SDS011;7125;48.106;11.544;2023-07-13T13:26:48;2.80;;;1.35;;
14096;SDS011;7125;48.106;11.544;2023-07-13T13:29:16;2.15;;;1.52;;
14096;SDS011;7125;48.106;11.544;2023-07-13T13:31:45;4.50;;;2.30;;
14096;SDS011;7125;48.106;11.544;2023-07-13T13:34:12;4.65;;;1.83;;
14096;SDS011;7125;48.106;11.544;2023-07-13T13:36:40;4.85;;;1.77;;
14096;SDS011;7125;48.106;11.544;2023-07-13T13:39:15;1.77;;;1.63;;
14096;SDS011;7125;48.106;11.544;2023-07-13T13:41:49;5.63;;;1.60;;
14096;SDS011;7125;48.106;11.544;2023-07-13T13:44:18;2.28;;;2.08;;
14096;SDS011;7125;48.106;11.544;2023-07-13T13:46:45;3.40;;;1.85;;
14096;SDS011;7125;48.106;11.544;2023-07-13T13:49:14;1.80;;;1.70;;
14096;SDS011;7125;48.106;11.544;2023-07-13T13:51:42;2.05;;;1.60;;
14096;SDS011;7125;48.106;11.544;2023-07-13T13:54:13;3.58;;;1.73;;
14096;SDS011;7125;48.106;11.544;2023-07-13T13:56:43;2.67;;;1.48;;
14096;SDS011;7125;48.106;11.544;2023-07-13T13:59:11;3.85;;;1.70;;
14096;SDS011;7125;48.106;11.544;2023-07-13T14:01:39;5.18;;;1.38;;
14096;SDS011;7125;48.106;11.544;2023-07-13T14:04:06;3.75;;;1.70;;
14096;SDS011;7125;48.106;11.544;2023-07-13T14:06:35;2.05;;;1.63;;
14096;SDS011;7125;48.106;11.544;2023-07-13T14:09:02;1.50;;;1.20;;
14096;SDS011;7125;48.106;11.544;2023-07-13T14:11:28;1.55;;;1.45;;
14096;SDS011;7125;48.106;11.544;2023-07-13T14:13:59;2.80;;;1.35;;
14096;SDS011;7125;48.106;11.544;2023-07-13T14:16:29;2.17;;;1.50;;
14096;SDS011;7125;48.106;11.544;2023-07-13T14:18:58;3.00;;;1.45;;
14096;SDS011;7125;48.106;11.544;2023-07-13T14:21:26;2.58;;;2.00;;
14096;SDS011;7125;48.106;11.544;2023-07-13T14:23:54;2.45;;;1.45;;
14096;SDS011;7125;48.106;11.544;2023-07-13T14:26:22;2.70;;;1.30;;
14096;SDS011;7125;48.106;11.544;2023-07-13T14:28:51;4.25;;;1.63;;
14096;SDS011;7125;48.106;11.544;2023-07-13T14:31:20;2.47;;;1.92;;
14096;SDS011;7125;48.106;11.544;2023-07-13T14:33:48;4.72;;;1.45;;
14096;SDS011;7125;48.106;11.544;2023-07-13T14:36:20;1.75;;;1.20;;
14096;SDS011;7125;48.106;11.544;2023-07-13T14:38:51;1.75;;;1.45;;
14096;SDS011;7125;48.106;11.544;2023-07-13T14:41:18;2.28;;;1.35;;
14096;SDS011;7125;48.106;11.544;2023-07-13T14:43:45;4.85;;;1.90;;
14096;SDS011;7125;48.106;11.544;2023-07-13T14:46:16;2.97;;;1.10;;
14096;SDS011;7125;48.106;11.544;2023-07-13T14:48:50;2.65;;;1.52;;
14096;SDS011;7125;48.106;11.544;2023-07-13T14:51:18;5.47;;;1.40;;
14096;SDS011;7125;48.106;11.544;2023-07-13T14:53:46;2.38;;;1.30;;
14096;SDS011;7125;48.106;11.544;2023-07-13T14:56:13;4.95;;;1.42;;
14096;SDS011;7125;48.106;11.544;2023-07-13T14:58:42;10.95;;;1.88;;
14096;SDS011;7125;48.106;11.544;2023-07-13T15:01:10;1.98;;;1.75;;
14096;SDS011;7125;48.106;11.544;2023-07-13T15:03:44;4.57;;;1.88;;
14096;SDS011;7125;48.106;11.544;2023-07-13T15:06:13;5.78;;;1.75;;
14096;SDS011;7125;48.106;11.544;2023-07-13T15:08:40;4.07;;;2.08;;